Weather observations for the past three days for
Nadi International Airport
Imperial (Metric)
Date Time (+12) Wind (mph) Vis. (mi.) Weather Sky Cond. Temperature (ºF) Relative Humidity Wind Chill (°F) Heat Index (°F) Pressure Precipitation (in)
Air Dwpt 6 hour altimeter (in) sea level (mb) 1 hr 3 hr 6 hr
Max. Min.
31 17:00 SW 9 0.00 A Few Clouds FEW030 78.8 66.2 65% 81 0 0.0
31 16:00 SW 9 0.00 Partly Cloudy SCT028 SCT050 78.8 66.2 65% 81 0 0.0
31 15:00 NW 14 0.00 Partly Cloudy SCT028 78.8 66.2 65% 81 0 0.0
31 14:00 NW 14 0.00 Partly Cloudy SCT028 80.6 66.2 62% 83 0 0.0
31 13:00 NW 13 0.00 Partly Cloudy SCT030 80.6 66.2 62% 83 0 0.0
31 12:00 NW 14 0.00 Partly Cloudy SCT030 78.8 64.4 61% 81 0 0.0
31 11:00 NW 10 0.00 Partly Cloudy SCT030 78.8 64.4 61% 81 0 0.0
31 10:00 S 6 0.00 A Few Clouds FEW030 78.8 62.6 58% 80 0 0.0
31 09:00 E 6 0.00 A Few Clouds FEW030 77 62.6 61% 79 0 0.0
31 08:00 Vrbl 2 0.00 A Few Clouds FEW030 71.6 62.6 73% 0 0.0
31 07:00 SE 3 0.00 A Few Clouds FEW030 66.2 64.4 94% 0 0.0
31 06:00 SE 5 0.00 A Few Clouds FEW030 64.4 62.6 94% 0 0.0
31 05:00 SE 3 0.00 A Few Clouds FEW030 64.4 64.4 100% 0 0.0
31 04:00 S 5 0.00 A Few Clouds FEW030 64.4 60.8 88% 0 0.0
31 03:00 Calm 0.00 A Few Clouds FEW030 64.4 60.8 88% 0 0.0
31 02:00 E 3 0.00 A Few Clouds FEW030 66.2 60.8 83% 0 0.0
31 01:00 S 6 0.00 A Few Clouds FEW030 68 60.8 78% 0 0.0
31 00:00 S 6 0.00 A Few Clouds FEW030 68 60.8 78% 0 0.0
30 23:00 SE 5 0.00 A Few Clouds FEW030 68 60.8 78% 0 0.0
30 22:00 S 5 0.00 A Few Clouds FEW030 71.6 60.8 69% 0 0.0
30 21:00 S 7 0.00 A Few Clouds FEW030 71.6 62.6 73% 0 0.0
30 20:00 S 10 0.00 A Few Clouds FEW030 73.4 62.6 69% 0 0.0
30 19:00 S 10 0.00 A Few Clouds FEW030 73.4 62.6 69% 0 0.0
30 18:00 SW 10 0.00 A Few Clouds FEW030 75.2 62.6 65% 77 0 0.0
30 17:00 SW 14 0.00 A Few Clouds FEW030 80.6 57.2 45% 81 0 0.0
30 16:00 SW 14 0.00 A Few Clouds FEW030 82.4 53.6 37% 81 0 0.0
30 15:00 SW 14 0.00 A Few Clouds FEW030 84.2 57.2 40% 83 0 0.0
30 14:00 W 18 0.00 A Few Clouds FEW030 80.6 62.6 54% 82 0 0.0
30 13:00 W 16 0.00 A Few Clouds FEW030 82.4 64.4 55% 84 0 0.0
30 12:00 W 15 0.00 Partly Cloudy FEW030 SCT120 80.6 66.2 62% 83 0 0.0
30 11:00 SW 5 0.00 A Few Clouds FEW030 80.6 62.6 54% 82 0 0.0
30 10:00 S 6 0.00 A Few Clouds FEW030 78.8 64.4 61% 81 0 0.0
30 09:00 S 3 0.00 A Few Clouds FEW030 75.2 66.2 74% 77 0 0.0
30 08:00 SE 6 0.00 A Few Clouds FEW030 71.6 66.2 83% 0 0.0
30 07:00 SE 5 0.00 A Few Clouds FEW030 68 64.4 88% 0 0.0
30 06:00 Calm 0.00 A Few Clouds FEW030 66.2 64.4 94% 0 0.0
30 05:00 E 3 0.00 A Few Clouds FEW030 68 64.4 88% 0 0.0
30 04:00 Calm 0.00 A Few Clouds FEW030 68 64.4 88% 0 0.0
30 03:00 SE 5 0.00 A Few Clouds FEW030 68 66.2 94% 0 0.0
30 02:00 E 5 0.00 Partly Cloudy FEW030 SCT050 69.8 66.2 88% 0 0.0
30 01:00 SE 3 0.00 A Few Clouds FEW030 68 66.2 94% 0 0.0
30 00:00 SE 3 0.00 A Few Clouds FEW030 69.8 68 94% 0 0.0
29 23:00 Calm 0.00 A Few Clouds FEW030 71.6 68 88% 0 0.0
29 22:00 Calm 0.00 A Few Clouds FEW030 71.6 68 88% 0 0.0
29 21:00 Calm 0.00 Partly Cloudy SCT030 71.6 68 88% 0 0.0
29 20:00 Calm 0.00 A Few Clouds FEW028 73.4 68 83% 0 0.0
29 19:00 SW 5 0.00 A Few Clouds FEW028 75.2 68 78% 76 0 0.0
29 18:00 W 10 0.00 A Few Clouds FEW026 75.2 68 78% 76 0 0.0
29 17:00 W 10 0.00 A Few Clouds FEW028 77 68 74% 79 0 0.0
29 16:00 W 12 0.00 Partly Cloudy SCT030 78.8 68 70% 81 0 0.0
29 15:00 W 14 0.00 A Few Clouds FEW030 80.6 68 66% 83 0 0.0
29 14:00 W 14 0.00 A Few Clouds FEW030 78.8 68 70% 81 0 0.0
29 13:00 W 15 0.00 A Few Clouds FEW030 80.6 68 66% 83 0 0.0
29 12:00 W 14 0.00 A Few Clouds FEW030 80.6 68 66% 83 0 0.0
29 11:00 W 13 0.00 A Few Clouds FEW028 78.8 66.2 65% 81 0 0.0
29 10:00 NW 9 0.00 Partly Cloudy SCT028 82.4 68 62% 85 0 0.0
29 09:00 Vrbl 1 0.00 A Few Clouds FEW028 78.8 66.2 65% 81 0 0.0
29 08:00 SE 3 0.00 A Few Clouds FEW030 73.4 68 83% 0 0.0
29 07:00 Calm 0.00 A Few Clouds FEW030 66.2 64.4 94% 0 0.0
29 06:00 Calm 0.00 A Few Clouds FEW030 66.2 62.6 88% 0 0.0
29 05:00 Calm 0.00 A Few Clouds FEW030 66.2 64.4 94% 0 0.0
29 04:00 Calm 0.00 A Few Clouds FEW030 66.2 64.4 94% 0 0.0
29 03:00 Vrbl 1 0.00 A Few Clouds FEW030 66.2 64.4 94% 0 0.0
29 02:00 Calm 0.00 A Few Clouds FEW030 68 66.2 94% 0 0.0
29 01:00 Calm 0.00 A Few Clouds FEW030 69.8 64.4 83% 0 0.0
29 00:00 SE 3 0.00 A Few Clouds FEW030 71.6 64.4 78% 0 0.0
28 23:00 S 5 0.00 Partly Cloudy FEW030 SCT050 73.4 66.2 78% 0 0.0
28 22:00 Calm 0.00 Partly Cloudy FEW030 SCT050 75.2 66.2 74% 77 0 0.0
28 21:00 N 5 0.00 Partly Cloudy FEW028 SCT048 75.2 66.2 74% 77 0 0.0
28 20:00 NE 6 0.00 Partly Cloudy FEW028 SCT048 77 66.2 69% 79 0 0.0
28 19:00 NE 6 0.00 Partly Cloudy SCT027 SCT048 77 66.2 69% 79 0 0.0
28 18:00 N 7 0.00 Partly Cloudy FEW028 SCT048 77 66.2 69% 79 0 0.0
Date Time (+12) Wind (mph) Vis. (mi.) Weather Sky Cond. Air Dwpt Max. Min. Relative Humidity Wind Chill (°F) Heat Index (°F) altimeter (in) sea level (mb) 1 hr 3 hr 6 hr
6 hour
Temperature (ºF) Pressure Precipitation (in)